Time,TemperatureF,DewpointF,PressureIn,WindDirection,WindDirectionDegrees,WindSpeedMPH,WindSpeedGustMPH,Humidity,HourlyPrecipIn,Conditions,Clouds,dailyrainin,SolarRadiationWatts/m^2,SoftwareType,DateUTC
2013-06-11 00:00:00,69.4,67.3,30.06,SW,219,2.0,5.0,93,0.00,,SCT120,1.07,0.00,VWS V14.00,2013-06-11 04:00:00,
2013-06-11 00:03:00,69.4,67.3,30.06,SW,219,0.0,5.0,93,0.00,,SCT120,1.07,0.00,VWS V14.00,2013-06-11 04:03:00,
2013-06-11 00:04:00,69.4,67.3,30.06,SW,219,0.0,0.0,93,0.00,,CLR,0.00,0.00,VWS V14.00,2013-06-11 04:04:00,
2013-06-11 00:05:00,69.4,67.3,30.06,SW,219,2.0,2.0,93,0.00,,CLR,0.00,0.00,VWS V14.00,2013-06-11 04:05:00,
2013-06-11 00:10:00,69.4,67.3,30.06,SW,219,0.0,2.0,93,0.00,,CLR,0.00,0.00,VWS V14.00,2013-06-11 04:10:00,
2013-06-11 00:15:00,69.3,67.2,30.06,WSW,237,0.0,4.0,93,0.00,,CLR,0.00,0.00,VWS V14.00,2013-06-11 04:15:00,
2013-06-11 00:20:00,69.3,67.2,30.06,SW,232,1.0,4.0,93,0.00,,CLR,0.00,0.00,VWS V14.00,2013-06-11 04:20:00,
2013-06-11 00:25:00,69.3,67.2,30.06,SW,232,0.0,0.0,93,0.00,,CLR,0.00,0.00,VWS V14.00,2013-06-11 04:25:00,
2013-06-11 00:30:00,69.3,67.2,30.06,SW,232,0.0,0.0,93,0.00,,CLR,0.00,0.00,VWS V14.00,2013-06-11 04:30:00,
2013-06-11 00:35:00,69.3,67.2,30.06,SW,232,0.0,0.0,93,0.00,,CLR,0.00,0.00,VWS V14.00,2013-06-11 04:35:00,
2013-06-11 00:40:00,69.4,67.3,30.06,WSW,241,0.0,5.0,93,0.00,,CLR,0.00,0.00,VWS V14.00,2013-06-11 04:40:00,
2013-06-11 00:45:00,69.4,67.3,30.06,WSW,243,0.0,5.0,93,0.00,,BKN020,0.00,0.00,VWS V14.00,2013-06-11 04:45:00,
2013-06-11 00:50:00,69.4,67.3,30.06,SW,222,2.0,5.0,93,0.00,,BKN020,0.00,0.00,VWS V14.00,2013-06-11 04:50:00,
2013-06-11 00:55:00,69.4,67.3,30.06,SW,222,0.0,0.0,93,0.00,,BKN020,0.00,0.00,VWS V14.00,2013-06-11 04:55:00,
2013-06-11 01:00:00,69.3,67.2,30.05,SW,220,0.0,3.0,93,0.00,,BKN020,0.00,0.00,VWS V14.00,2013-06-11 05:00:00,
2013-06-11 01:05:00,69.3,67.2,30.05,SSW,209,5.0,5.0,93,0.00,,,0.00,0.00,VWS V14.00,2013-06-11 05:05:00,
2013-06-11 01:10:00,69.3,67.2,30.05,SSW,212,0.0,5.0,93,0.00,,,0.00,0.00,VWS V14.00,2013-06-11 05:10:00,
2013-06-11 01:15:00,69.3,67.2,30.05,SSW,212,0.0,2.0,93,0.00,,,0.00,0.00,VWS V14.00,2013-06-11 05:15:00,
2013-06-11 01:20:00,69.1,67.0,30.05,SSW,212,0.0,2.0,93,0.00,,,0.00,0.00,VWS V14.00,2013-06-11 05:20:00,
2013-06-11 01:25:00,69.1,67.0,30.05,SSW,212,0.0,1.0,93,0.00,,,0.00,0.00,VWS V14.00,2013-06-11 05:25:00,
2013-06-11 01:30:00,69.1,67.0,30.05,SSW,212,0.0,1.0,93,0.00,,,0.00,0.00,VWS V14.00,2013-06-11 05:30:00,
2013-06-11 01:35:00,69.1,67.0,30.05,SSW,212,0.0,1.0,93,0.00,,,0.00,0.00,VWS V14.00,2013-06-11 05:35:00,
2013-06-11 01:40:00,69.1,67.0,30.05,SSW,212,0.0,1.0,93,0.00,,,0.00,0.00,VWS V14.00,2013-06-11 05:40:00,
2013-06-11 01:45:00,69.1,67.0,30.05,SSW,212,0.0,0.0,93,0.00,,,0.00,0.00,VWS V14.00,2013-06-11 05:45:00,
2013-06-11 01:50:00,69.1,67.0,30.05,SSW,212,0.0,0.0,93,0.00,,,0.00,0.00,VWS V14.00,2013-06-11 05:50:00,
2013-06-11 01:55:00,69.1,67.0,30.05,SSW,212,0.0,0.0,93,0.00,,,0.00,0.00,VWS V14.00,2013-06-11 05:55:00,
2013-06-11 02:00:00,69.1,67.3,30.05,SSW,210,0.0,0.0,94,0.00,,,0.00,0.00,VWS V14.00,2013-06-11 06:00:00,
2013-06-11 02:05:00,69.3,67.5,30.05,SSW,212,0.0,0.0,94,0.00,,,0.00,0.00,VWS V14.00,2013-06-11 06:05:00,
2013-06-11 02:10:00,69.3,67.5,30.05,WSW,240,5.0,7.0,94,0.00,,,0.00,0.00,VWS V14.00,2013-06-11 06:10:00,
2013-06-11 02:15:00,69.3,67.5,30.04,SW,226,1.0,6.0,94,0.00,,,0.00,0.00,VWS V14.00,2013-06-11 06:15:00,
2013-06-11 02:20:00,69.1,67.3,30.04,SW,220,2.0,6.0,94,0.00,,,0.00,0.00,VWS V14.00,2013-06-11 06:20:00,
2013-06-11 02:25:00,69.1,67.3,30.04,SW,216,3.0,6.0,94,0.00,,,0.00,0.00,VWS V14.00,2013-06-11 06:25:00,
2013-06-11 02:30:00,69.1,67.3,30.03,SW,230,0.0,6.0,94,0.00,,,0.00,0.00,VWS V14.00,2013-06-11 06:30:00,
2013-06-11 02:35:00,69.1,67.3,30.03,SW,215,0.0,8.0,94,0.00,,,0.01,0.00,VWS V14.00,2013-06-11 06:35:00,
2013-06-11 02:40:00,69.1,67.3,30.03,WSW,248,3.0,8.0,94,0.00,,,0.01,0.00,VWS V14.00,2013-06-11 06:40:00,
2013-06-11 02:45:00,69.1,67.3,30.03,SW,230,4.0,6.0,94,0.00,,,0.01,0.00,VWS V14.00,2013-06-11 06:45:00,
2013-06-11 02:50:00,69.1,67.3,30.03,SW,217,3.0,7.0,94,0.00,,,0.01,0.00,VWS V14.00,2013-06-11 06:50:00,
2013-06-11 02:55:00,69.1,67.3,30.03,SW,230,3.0,8.0,94,0.00,,,0.01,0.00,VWS V14.00,2013-06-11 06:55:00,
2013-06-11 03:00:00,69.1,67.3,30.03,SW,232,2.0,8.0,94,0.00,,,0.01,0.00,VWS V14.00,2013-06-11 07:00:00,
2013-06-11 03:05:00,69.1,67.3,30.03,WSW,239,0.0,5.0,94,0.00,,,0.01,0.00,VWS V14.00,2013-06-11 07:05:00,
2013-06-11 03:10:00,69.1,67.3,30.03,SW,234,0.0,5.0,94,0.00,,,0.01,0.00,VWS V14.00,2013-06-11 07:10:00,
2013-06-11 03:15:00,69.1,67.3,30.03,SW,234,0.0,0.0,94,0.00,,,0.01,0.00,VWS V14.00,2013-06-11 07:15:00,
2013-06-11 03:20:00,69.1,67.3,30.03,South,191,0.0,3.0,94,0.00,,,0.01,0.00,VWS V14.00,2013-06-11 07:20:00,
2013-06-11 03:25:00,69.1,67.3,30.03,SSW,192,0.0,3.0,94,0.00,,,0.01,0.00,VWS V14.00,2013-06-11 07:25:00,
2013-06-11 03:30:00,69.3,67.5,30.03,SSW,205,0.0,5.0,94,0.00,,,0.01,0.00,VWS V14.00,2013-06-11 07:30:00,
2013-06-11 03:35:00,69.3,67.5,30.03,SW,219,2.0,4.0,94,0.00,,,0.01,0.00,VWS V14.00,2013-06-11 07:35:00,
2013-06-11 03:40:00,69.4,67.6,30.03,SW,217,0.0,5.0,94,0.00,,,0.01,0.00,VWS V14.00,2013-06-11 07:40:00,
2013-06-11 03:45:00,69.4,67.6,30.03,SW,217,0.0,3.0,94,0.00,,,0.01,0.00,VWS V14.00,2013-06-11 07:45:00,
2013-06-11 03:50:00,69.4,67.6,30.03,SW,227,6.0,6.0,94,0.00,,,0.01,0.00,VWS V14.00,2013-06-11 07:50:00,
2013-06-11 03:55:00,69.4,67.6,30.03,SSW,208,0.0,5.0,94,0.00,,,0.01,0.00,VWS V14.00,2013-06-11 07:55:00,
2013-06-11 04:00:00,69.4,67.6,30.02,SW,219,1.0,6.0,94,0.00,,,0.01,0.00,VWS V14.00,2013-06-11 08:00:00,
2013-06-11 04:05:00,69.4,67.6,30.02,SW,216,4.0,4.0,94,0.00,,,0.01,0.00,VWS V14.00,2013-06-11 08:05:00,
2013-06-11 04:10:00,69.4,67.6,30.02,WSW,243,2.0,6.0,94,0.00,,,0.01,0.00,VWS V14.00,2013-06-11 08:10:00,
2013-06-11 04:15:00,69.4,67.6,30.02,SSW,210,2.0,8.0,94,0.00,,,0.01,0.00,VWS V14.00,2013-06-11 08:15:00,
2013-06-11 04:20:00,69.4,67.6,30.02,SSW,199,3.0,8.0,94,0.00,,,0.01,0.00,VWS V14.00,2013-06-11 08:20:00,
2013-06-11 04:25:00,69.4,67.6,30.02,SSW,213,0.0,7.0,94,0.00,,,0.01,0.00,VWS V14.00,2013-06-11 08:25:00,
2013-06-11 04:30:00,69.6,67.8,30.02,SSW,196,0.0,7.0,94,0.00,,,0.01,0.00,VWS V14.00,2013-06-11 08:30:00,
2013-06-11 04:35:00,69.6,67.8,30.02,SW,226,5.0,6.0,94,0.00,,,0.01,0.00,VWS V14.00,2013-06-11 08:35:00,
2013-06-11 04:40:00,69.6,67.8,30.02,WSW,241,2.0,6.0,94,0.00,,,0.01,0.00,VWS V14.00,2013-06-11 08:40:00,
2013-06-11 04:45:00,69.6,67.8,30.02,SW,226,3.0,5.0,94,0.00,,,0.01,0.00,VWS V14.00,2013-06-11 08:45:00,
2013-06-11 04:50:00,69.6,67.8,30.02,South,191,0.0,6.0,94,0.00,,,0.01,0.00,VWS V14.00,2013-06-11 08:50:00,
2013-06-11 04:55:00,69.6,67.8,30.02,South,191,0.0,0.0,94,0.00,,,0.01,0.00,VWS V14.00,2013-06-11 08:55:00,
2013-06-11 05:00:00,69.6,67.8,30.02,SW,236,0.0,5.0,94,0.00,,,0.01,0.00,VWS V14.00,2013-06-11 09:00:00,
2013-06-11 05:05:00,69.8,68.0,30.02,WSW,241,1.0,6.0,94,0.00,,,0.01,0.00,VWS V14.00,2013-06-11 09:05:00,
2013-06-11 05:10:00,69.8,68.0,30.02,SSW,200,2.0,6.0,94,0.00,,,0.01,0.00,VWS V14.00,2013-06-11 09:10:00,
2013-06-11 05:15:00,69.8,68.0,30.01,SW,220,0.0,7.0,94,0.00,,,0.01,0.00,VWS V14.00,2013-06-11 09:15:00,
2013-06-11 05:20:00,69.8,68.0,30.01,SW,227,1.0,7.0,94,0.00,,,0.01,0.00,VWS V14.00,2013-06-11 09:20:00,
2013-06-11 05:25:00,69.8,68.0,30.01,SW,229,2.0,3.0,94,0.00,,,0.01,0.00,VWS V14.00,2013-06-11 09:25:00,
2013-06-11 05:30:00,69.8,68.0,30.01,WSW,251,0.0,7.0,94,0.00,,,0.01,0.00,VWS V14.00,2013-06-11 09:30:00,
2013-06-11 05:35:00,69.9,68.1,30.01,WSW,239,5.0,6.0,94,0.00,,,0.01,0.00,VWS V14.00,2013-06-11 09:35:00,
2013-06-11 05:40:00,69.9,68.1,30.01,SW,219,0.0,6.0,94,0.00,,,0.01,0.00,VWS V14.00,2013-06-11 09:40:00,
2013-06-11 05:45:00,69.9,68.1,30.02,SW,230,1.0,2.0,94,0.00,,,0.01,0.00,VWS V14.00,2013-06-11 09:45:00,
2013-06-11 05:50:00,69.9,68.1,30.02,SW,226,0.0,5.0,94,0.00,,,0.01,0.00,VWS V14.00,2013-06-11 09:50:00,
2013-06-11 05:55:00,69.9,68.1,30.02,SW,217,0.0,3.0,94,0.00,,,0.01,0.00,VWS V14.00,2013-06-11 09:55:00,
2013-06-11 06:00:00,69.9,68.1,30.02,SW,217,2.0,3.0,94,0.00,,,0.01,0.00,VWS V14.00,2013-06-11 10:00:00,
2013-06-11 06:05:00,69.9,68.1,30.02,SW,217,0.0,0.0,94,0.00,,,0.01,0.00,VWS V14.00,2013-06-11 10:05:00,
2013-06-11 06:10:00,69.9,68.1,30.02,SW,222,0.0,2.0,94,0.00,,,0.01,0.00,VWS V14.00,2013-06-11 10:10:00,
2013-06-11 06:15:00,69.9,68.1,30.03,South,189,0.0,3.0,94,0.00,,,0.01,0.00,VWS V14.00,2013-06-11 10:15:00,
2013-06-11 06:20:00,69.9,68.1,30.03,SW,229,0.0,5.0,94,0.00,,,0.01,0.00,VWS V14.00,2013-06-11 10:20:00,
2013-06-11 06:25:00,69.9,68.1,30.03,SSW,213,2.0,4.0,94,0.00,,,0.01,5.00,VWS V14.00,2013-06-11 10:25:00,
2013-06-11 06:30:00,69.9,68.1,30.03,SW,222,0.0,5.0,94,0.00,,,0.01,5.00,VWS V14.00,2013-06-11 10:30:00,
2013-06-11 06:35:00,69.9,68.1,30.03,SW,222,0.0,1.0,94,0.00,,,0.01,9.00,VWS V14.00,2013-06-11 10:35:00,
2013-06-11 06:40:00,70.1,68.3,30.03,SW,222,0.0,2.0,94,0.00,,,0.01,9.00,VWS V14.00,2013-06-11 10:40:00,
2013-06-11 06:45:00,70.1,68.3,30.03,SW,229,0.0,4.0,94,0.00,,,0.01,12.00,VWS V14.00,2013-06-11 10:45:00,
2013-06-11 06:50:00,70.1,68.3,30.03,SW,232,1.0,6.0,94,0.00,,,0.01,12.00,VWS V14.00,2013-06-11 10:50:00,
2013-06-11 06:55:00,70.3,68.5,30.03,SW,232,0.0,4.0,94,0.00,,,0.01,11.00,VWS V14.00,2013-06-11 10:55:00,
2013-06-11 07:00:00,70.3,68.5,30.03,SW,227,2.0,4.0,94,0.00,,,0.01,12.00,VWS V14.00,2013-06-11 11:00:00,
2013-06-11 07:05:00,70.3,68.5,30.03,SW,227,0.0,1.0,94,0.00,,,0.01,18.00,VWS V14.00,2013-06-11 11:05:00,
2013-06-11 07:10:00,70.3,68.5,30.03,SW,222,2.0,3.0,94,0.00,,,0.01,35.00,VWS V14.00,2013-06-11 11:10:00,
2013-06-11 07:15:00,70.4,69.8,30.04,SW,219,0.0,2.0,98,0.00,,,0.01,65.00,VWS V14.00,2013-06-11 11:15:00,
2013-06-11 07:20:00,70.6,70.0,30.04,SW,219,3.0,5.0,98,0.00,,,0.01,84.00,VWS V14.00,2013-06-11 11:20:00,
2013-06-11 07:25:00,70.8,70.2,30.04,SW,216,2.0,3.0,98,0.00,,,0.01,60.00,VWS V14.00,2013-06-11 11:25:00,
2013-06-11 07:30:00,70.9,70.3,30.03,SW,233,0.0,7.0,98,0.00,,,0.01,77.00,VWS V14.00,2013-06-11 11:30:00,
2013-06-11 07:35:00,70.9,70.3,30.03,SW,226,0.0,2.0,98,0.00,,,0.01,70.00,VWS V14.00,2013-06-11 11:35:00,
2013-06-11 07:40:00,71.1,70.5,30.03,SW,223,1.0,2.0,98,0.00,,,0.01,70.00,VWS V14.00,2013-06-11 11:40:00,
2013-06-11 07:45:00,71.1,70.5,30.04,SW,222,0.0,3.0,98,0.00,,,0.01,65.00,VWS V14.00,2013-06-11 11:45:00,
2013-06-11 07:50:00,71.1,70.2,30.04,SSW,196,1.0,4.0,97,0.00,,,0.01,86.00,VWS V14.00,2013-06-11 11:50:00,
2013-06-11 07:55:00,71.1,70.5,30.04,SW,229,0.0,5.0,98,0.00,,,0.01,58.00,VWS V14.00,2013-06-11 11:55:00,
2013-06-11 08:00:00,71.3,70.7,30.04,SW,229,0.0,5.0,98,0.00,,,0.01,55.00,VWS V14.00,2013-06-11 12:00:00,
2013-06-11 08:05:00,71.3,70.7,30.04,SW,229,0.0,2.0,98,0.00,,,0.01,56.00,VWS V14.00,2013-06-11 12:05:00,
2013-06-11 08:10:00,71.3,70.4,30.04,SW,223,0.0,5.0,97,0.00,,,0.01,72.00,VWS V14.00,2013-06-11 12:10:00,
2013-06-11 08:15:00,71.5,70.6,30.06,SW,223,0.0,0.0,97,0.00,,,0.01,86.00,VWS V14.00,2013-06-11 12:15:00,
2013-06-11 08:20:00,71.5,70.9,30.06,SW,223,0.0,0.0,98,0.00,,,0.01,116.00,VWS V14.00,2013-06-11 12:20:00,
2013-06-11 08:25:00,71.6,71.0,30.06,SW,223,0.0,0.0,98,0.00,,,0.01,86.00,VWS V14.00,2013-06-11 12:25:00,
2013-06-11 08:30:00,71.8,71.2,30.06,SW,223,0.0,1.0,98,0.00,,,0.01,139.00,VWS V14.00,2013-06-11 12:30:00,
2013-06-11 08:35:00,72.0,71.4,30.06,SW,223,0.0,0.0,98,0.00,,,0.01,95.00,VWS V14.00,2013-06-11 12:35:00,
2013-06-11 08:40:00,72.0,71.4,30.06,SW,223,0.0,3.0,98,0.00,,,0.01,116.00,VWS V14.00,2013-06-11 12:40:00,
2013-06-11 08:45:00,72.1,71.5,30.06,SW,223,0.0,0.0,98,0.00,,,0.01,160.00,VWS V14.00,2013-06-11 12:45:00,
2013-06-11 08:50:00,72.1,71.5,30.06,SW,223,0.0,0.0,98,0.00,,,0.01,118.00,VWS V14.00,2013-06-11 12:50:00,
2013-06-11 08:55:00,72.3,71.7,30.06,SW,223,0.0,1.0,98,0.00,,,0.01,171.00,VWS V14.00,2013-06-11 12:55:00,
2013-06-11 09:00:00,72.3,71.7,30.06,South,191,2.0,7.0,98,0.00,,,0.01,155.00,VWS V14.00,2013-06-11 13:00:00,
2013-06-11 09:05:00,72.3,71.4,30.06,South,191,0.0,0.0,97,0.00,,,0.01,153.00,VWS V14.00,2013-06-11 13:05:00,
2013-06-11 09:10:00,72.3,71.4,30.06,SW,226,0.0,6.0,97,0.00,,,0.01,187.00,VWS V14.00,2013-06-11 13:10:00,
2013-06-11 09:15:00,72.5,71.6,30.06,NW,313,0.0,6.0,97,0.00,,,0.01,285.00,VWS V14.00,2013-06-11 13:15:00,
2013-06-11 09:20:00,72.7,71.8,30.06,SW,220,0.0,6.0,97,0.00,,,0.01,269.00,VWS V14.00,2013-06-11 13:20:00,
2013-06-11 09:25:00,72.8,71.9,30.06,SSE,167,0.0,3.0,97,0.00,,,0.01,230.00,VWS V14.00,2013-06-11 13:25:00,
2013-06-11 09:30:00,73.0,72.1,30.06,SSW,213,0.0,3.0,97,0.00,,,0.01,234.00,VWS V14.00,2013-06-11 13:30:00,
2013-06-11 09:35:00,73.0,72.1,30.06,West,263,0.0,9.0,97,0.00,,,0.01,280.00,VWS V14.00,2013-06-11 13:35:00,
2013-06-11 09:40:00,73.2,72.3,30.06,WSW,241,0.0,9.0,97,0.00,,,0.01,266.00,VWS V14.00,2013-06-11 13:40:00,
2013-06-11 09:45:00,73.2,72.0,30.06,West,261,0.0,11.0,96,0.00,,,0.01,655.00,VWS V14.00,2013-06-11 13:45:00,
2013-06-11 09:50:00,73.7,72.5,30.06,SW,233,5.0,11.0,96,0.00,,,0.01,658.00,VWS V14.00,2013-06-11 13:50:00,
2013-06-11 09:55:00,73.7,72.2,30.06,SW,222,2.0,10.0,95,0.00,,,0.01,658.00,VWS V14.00,2013-06-11 13:55:00,
2013-06-11 10:00:00,74.0,71.8,30.05,SSW,206,5.0,13.0,93,0.00,,,0.01,676.00,VWS V14.00,2013-06-11 14:00:00,
2013-06-11 10:05:00,74.6,72.1,30.05,South,182,1.0,6.0,92,0.00,,BKN080,0.01,760.00,VWS V14.00,2013-06-11 14:05:00,
2013-06-11 10:10:00,75.4,72.6,30.05,NE,37,0.0,6.0,91,0.00,,BKN080,0.01,429.00,VWS V14.00,2013-06-11 14:10:00,
2013-06-11 10:15:00,75.6,72.1,30.05,SW,215,0.0,6.0,89,0.00,,BKN080,0.01,345.00,VWS V14.00,2013-06-11 14:15:00,
2013-06-11 10:20:00,76.0,72.2,30.05,WNW,294,0.0,6.0,88,0.00,,BKN080,0.01,345.00,VWS V14.00,2013-06-11 14:20:00,
2013-06-11 10:25:00,76.7,72.5,30.05,SW,215,2.0,3.0,87,0.00,,BKN080,0.01,748.00,VWS V14.00,2013-06-11 14:25:00,
2013-06-11 10:30:00,77.0,71.8,30.05,SW,222,0.0,5.0,84,0.00,,BKN080,0.01,257.00,VWS V14.00,2013-06-11 14:30:00,
2013-06-11 10:35:00,77.2,71.6,30.05,SSW,199,7.0,8.0,83,0.00,,BKN080,0.01,253.00,VWS V14.00,2013-06-11 14:35:00,
2013-06-11 10:40:00,77.4,71.5,30.05,WSW,246,0.0,8.0,82,0.00,,BKN080,0.01,185.00,VWS V14.00,2013-06-11 14:40:00,
2013-06-11 10:45:00,77.6,71.3,30.04,WSW,256,2.0,8.0,81,0.00,,BKN080,0.01,375.00,VWS V14.00,2013-06-11 14:45:00,
2013-06-11 10:50:00,77.7,71.4,30.04,SW,217,3.0,8.0,81,0.00,,BKN080,0.01,338.00,VWS V14.00,2013-06-11 14:50:00,
2013-06-11 10:55:00,77.9,71.6,30.04,SW,217,0.0,7.0,81,0.00,,BKN080,0.01,370.00,VWS V14.00,2013-06-11 14:55:00,
2013-06-11 11:00:00,78.1,71.8,30.04,SSW,213,0.0,7.0,81,0.00,,BKN080,0.01,373.00,VWS V14.00,2013-06-11 15:00:00,
2013-06-11 11:05:00,78.3,71.6,30.04,SW,232,1.0,5.0,80,0.00,,,0.01,294.00,VWS V14.00,2013-06-11 15:05:00,
2013-06-11 11:10:00,78.3,71.3,30.04,SSW,206,0.0,7.0,79,0.00,,,0.01,311.00,VWS V14.00,2013-06-11 15:10:00,
2013-06-11 11:15:00,78.3,71.6,30.04,South,186,0.0,7.0,80,0.00,,,0.01,304.00,VWS V14.00,2013-06-11 15:15:00,
2013-06-11 11:20:00,78.3,71.3,30.04,SSW,199,0.0,7.0,79,0.00,,,0.01,340.00,VWS V14.00,2013-06-11 15:20:00,
2013-06-11 11:25:00,78.5,71.8,30.04,WSW,250,2.0,6.0,80,0.00,,,0.01,350.00,VWS V14.00,2013-06-11 15:25:00,
2013-06-11 11:30:00,78.5,71.8,30.05,SW,224,3.0,6.0,80,0.00,,,0.01,310.00,VWS V14.00,2013-06-11 15:30:00,
2013-06-11 11:35:00,78.5,71.8,30.05,WSW,253,0.0,4.0,80,0.00,,,0.01,311.00,VWS V14.00,2013-06-11 15:35:00,
2013-06-11 11:40:00,78.6,71.9,30.05,WSW,241,10.0,10.0,80,0.00,,,0.01,354.00,VWS V14.00,2013-06-11 15:40:00,
2013-06-11 11:45:00,78.8,71.7,30.04,WSW,240,0.0,7.0,79,0.00,,,0.01,734.00,VWS V14.00,2013-06-11 15:45:00,
2013-06-11 11:50:00,79.4,72.3,30.04,West,274,0.0,8.0,79,0.00,,,0.01,1103.00,VWS V14.00,2013-06-11 15:50:00,
2013-06-11 11:55:00,79.9,72.4,30.04,WSW,258,2.0,10.0,78,0.00,,,0.01,1103.00,VWS V14.00,2013-06-11 15:55:00,
2013-06-11 12:00:00,80.3,72.1,30.04,SW,226,1.0,10.0,76,0.00,,,0.01,461.00,VWS V14.00,2013-06-11 16:00:00,
2013-06-11 12:05:00,80.7,72.4,30.04,WSW,243,0.0,12.0,76,0.00,,OVC100,0.01,354.00,VWS V14.00,2013-06-11 16:05:00,
2013-06-11 12:10:00,80.9,72.2,30.04,SW,220,4.0,12.0,75,0.00,,OVC100,0.01,401.00,VWS V14.00,2013-06-11 16:10:00,
2013-06-11 12:15:00,81.1,72.4,30.04,SSW,210,7.0,11.0,75,0.00,,OVC100,0.01,982.00,VWS V14.00,2013-06-11 16:15:00,
2013-06-11 12:20:00,81.2,72.5,30.04,SW,219,7.0,11.0,75,0.00,,OVC100,0.01,931.00,VWS V14.00,2013-06-11 16:20:00,
2013-06-11 12:25:00,81.4,72.3,30.04,NE,56,0.0,8.0,74,0.00,,OVC100,0.01,931.00,VWS V14.00,2013-06-11 16:25:00,
2013-06-11 12:30:00,81.8,73.1,30.04,SW,229,0.0,8.0,75,0.00,,OVC100,0.01,931.00,VWS V14.00,2013-06-11 16:30:00,
2013-06-11 12:35:00,82.0,72.5,30.04,WSW,246,6.0,11.0,73,0.00,,OVC100,0.01,931.00,VWS V14.00,2013-06-11 16:35:00,
2013-06-11 12:40:00,82.2,72.7,30.04,WSW,251,5.0,11.0,73,0.00,,OVC100,0.01,996.00,VWS V14.00,2013-06-11 16:40:00,
2013-06-11 12:45:00,82.6,73.1,30.04,SW,223,0.0,7.0,73,0.00,,OVC100,0.01,438.00,VWS V14.00,2013-06-11 16:45:00,
2013-06-11 12:50:00,83.0,73.1,30.04,South,178,0.0,7.0,72,0.00,,OVC100,0.01,382.00,VWS V14.00,2013-06-11 16:50:00,
2013-06-11 12:55:00,83.4,73.4,30.04,East,88,0.0,5.0,72,0.00,,OVC100,0.01,998.00,VWS V14.00,2013-06-11 16:55:00,
2013-06-11 13:00:00,83.8,73.4,30.04,NE,34,0.0,8.0,71,0.00,,OVC100,0.01,1152.00,VWS V14.00,2013-06-11 17:00:00,
2013-06-11 13:05:00,84.1,73.7,30.04,SW,233,4.0,7.0,71,0.00,,BKN047,0.01,1105.00,VWS V14.00,2013-06-11 17:05:00,
2013-06-11 13:10:00,84.3,73.0,30.04,SW,222,8.0,10.0,69,0.00,,BKN047,0.01,1094.00,VWS V14.00,2013-06-11 17:10:00,
2013-06-11 13:15:00,84.5,73.2,30.03,South,189,0.0,10.0,69,0.00,,BKN047,0.01,304.00,VWS V14.00,2013-06-11 17:15:00,
2013-06-11 13:20:00,84.7,72.5,30.03,SW,215,1.0,10.0,67,0.00,,BKN047,0.01,352.00,VWS V14.00,2013-06-11 17:20:00,
2013-06-11 13:25:00,84.9,71.8,30.03,SW,224,2.0,6.0,65,0.00,,BKN047,0.01,355.00,VWS V14.00,2013-06-11 17:25:00,
2013-06-11 13:30:00,84.9,71.8,30.02,SW,229,2.0,10.0,65,0.00,,BKN047,0.01,1038.00,VWS V14.00,2013-06-11 17:30:00,
2013-06-11 13:35:00,85.3,72.2,30.02,West,271,3.0,6.0,65,0.00,,BKN047,0.01,1010.00,VWS V14.00,2013-06-11 17:35:00,
2013-06-11 13:40:00,85.7,73.5,30.02,SW,230,0.0,6.0,67,0.00,,BKN047,0.01,984.00,VWS V14.00,2013-06-11 17:40:00,
2013-06-11 13:45:00,86.1,73.4,30.01,West,275,0.0,6.0,66,0.00,, +RA,0.01,959.00,VWS V14.00,2013-06-11 17:45:00,
2013-06-11 13:50:00,86.5,71.9,30.01,West,260,2.0,10.0,62,0.00,, +RA,0.01,1024.00,VWS V14.00,2013-06-11 17:50:00,
2013-06-11 13:55:00,86.7,72.1,30.01,WSW,254,4.0,10.0,62,0.00,, +RA,0.01,1022.00,VWS V14.00,2013-06-11 17:55:00,
2013-06-11 14:00:00,87.0,72.4,30.00,SW,224,0.0,10.0,62,0.00,, +RA,0.01,984.00,VWS V14.00,2013-06-11 18:00:00,
2013-06-11 14:05:00,87.6,74.4,30.00,ESE,114,0.0,1.0,65,0.00,,BKN055,0.01,943.00,VWS V14.00,2013-06-11 18:05:00,
2013-06-11 14:10:00,88.0,73.4,30.00,WNW,292,3.0,11.0,62,0.00,,BKN055,0.01,977.00,VWS V14.00,2013-06-11 18:10:00,
2013-06-11 14:15:00,88.4,73.7,30.00,South,171,0.0,11.0,62,0.00,,BKN055,0.01,1003.00,VWS V14.00,2013-06-11 18:15:00,
2013-06-11 14:20:00,89.0,73.8,30.00,SSW,206,0.0,11.0,61,0.00,,BKN055,0.01,1015.00,VWS V14.00,2013-06-11 18:20:00,
2013-06-11 14:25:00,89.0,72.8,30.00,WSW,246,0.0,7.0,59,0.00,,BKN055,0.01,252.00,VWS V14.00,2013-06-11 18:25:00,
2013-06-11 14:30:00,89.0,72.3,30.00,WSW,254,4.0,7.0,58,0.00,,BKN055,0.01,287.00,VWS V14.00,2013-06-11 18:30:00,
2013-06-11 14:35:00,88.6,72.4,30.00,WSW,243,0.0,5.0,59,0.00,,BKN055,0.01,209.00,VWS V14.00,2013-06-11 18:35:00,
2013-06-11 14:40:00,88.4,73.2,30.00,SSE,162,0.0,5.0,61,0.00,,BKN055,0.01,940.00,VWS V14.00,2013-06-11 18:40:00,
2013-06-11 14:45:00,88.4,74.2,29.99,WSW,247,1.0,8.0,63,0.00,,BKN055,0.01,1024.00,VWS V14.00,2013-06-11 18:45:00,
2013-06-11 14:50:00,88.2,73.1,29.99,SW,224,2.0,9.0,61,0.00,,BKN055,0.01,387.00,VWS V14.00,2013-06-11 18:50:00,
2013-06-11 14:55:00,88.2,73.6,29.99,West,261,0.0,7.0,62,0.00,,BKN055,0.01,202.00,VWS V14.00,2013-06-11 18:55:00,
2013-06-11 15:00:00,88.0,73.4,29.99,West,260,2.0,7.0,62,0.00,,BKN055,0.01,245.00,VWS V14.00,2013-06-11 19:00:00,
2013-06-11 15:05:00,87.6,73.9,29.99,SSW,208,0.0,5.0,64,0.00,,BKN055,0.01,245.00,VWS V14.00,2013-06-11 19:05:00,
2013-06-11 15:10:00,87.4,73.7,29.99,SW,223,0.0,5.0,64,0.00,,BKN055,0.01,238.00,VWS V14.00,2013-06-11 19:10:00,
2013-06-11 15:15:00,87.4,74.7,29.98,SW,223,0.0,2.0,66,0.00,,BKN055,0.01,130.00,VWS V14.00,2013-06-11 19:15:00,
2013-06-11 15:20:00,87.2,74.5,29.98,SW,223,0.0,2.0,66,0.00,,BKN055,0.01,146.00,VWS V14.00,2013-06-11 19:20:00,
2013-06-11 15:25:00,87.4,76.0,29.98,SSW,208,0.0,0.0,69,0.00,,BKN055,0.01,892.00,VWS V14.00,2013-06-11 19:25:00,
2013-06-11 15:30:00,87.8,75.5,29.98,WSW,240,7.0,13.0,67,0.00,,BKN055,0.01,874.00,VWS V14.00,2013-06-11 19:30:00,
2013-06-11 15:35:00,88.2,75.0,29.98,WSW,237,0.0,9.0,65,0.00,,BKN055,0.01,901.00,VWS V14.00,2013-06-11 19:35:00,
2013-06-11 15:40:00,88.8,74.6,29.98,WSW,257,0.0,9.0,63,0.00,,BKN055,0.01,236.00,VWS V14.00,2013-06-11 19:40:00,
2013-06-11 15:45:00,89.0,73.3,29.97,SW,229,2.0,10.0,60,0.00,,BKN055,0.01,920.00,VWS V14.00,2013-06-11 19:45:00,
2013-06-11 15:50:00,89.0,73.8,29.97,WSW,253,0.0,10.0,61,0.00,,BKN055,0.01,199.00,VWS V14.00,2013-06-11 19:50:00,
2013-06-11 15:55:00,88.8,74.6,29.97,South,182,2.0,2.0,63,0.00,,BKN055,0.01,202.00,VWS V14.00,2013-06-11 19:55:00,
2013-06-11 16:00:00,89.0,76.2,29.97,SW,222,0.0,3.0,66,0.00,,BKN055,0.01,795.00,VWS V14.00,2013-06-11 20:00:00,
2013-06-11 16:05:00,89.0,73.3,29.97,WSW,244,0.0,2.0,60,0.00,,FEW043,0.01,148.00,VWS V14.00,2013-06-11 20:05:00,
2013-06-11 16:10:00,89.0,73.8,29.97,South,182,0.0,5.0,61,0.00,,FEW043,0.01,873.00,VWS V14.00,2013-06-11 20:10:00,
2013-06-11 16:15:00,89.5,74.3,29.95,SW,219,5.0,6.0,61,0.00,,FEW043,0.01,194.00,VWS V14.00,2013-06-11 20:15:00,
2013-06-11 16:20:00,89.7,75.9,29.95,SW,220,0.0,7.0,64,0.00,,FEW043,0.01,801.00,VWS V14.00,2013-06-11 20:20:00,
2013-06-11 16:25:00,90.1,75.3,29.95,SE,144,0.0,3.0,62,0.00,,FEW043,0.01,778.00,VWS V14.00,2013-06-11 20:25:00,
2013-06-11 16:30:00,90.5,75.2,29.95,West,264,1.0,6.0,61,0.00,,FEW043,0.01,769.00,VWS V14.00,2013-06-11 20:30:00,
2013-06-11 16:35:00,90.3,73.5,29.95,WSW,244,1.0,10.0,58,0.00,,FEW043,0.01,721.00,VWS V14.00,2013-06-11 20:35:00,
2013-06-11 16:40:00,90.1,75.3,29.95,SSW,209,0.0,10.0,62,0.00,,FEW043,0.01,751.00,VWS V14.00,2013-06-11 20:40:00,
2013-06-11 16:45:00,90.1,74.3,29.95,South,185,0.0,3.0,60,0.00,,FEW043,0.01,426.00,VWS V14.00,2013-06-11 20:45:00,
2013-06-11 16:50:00,90.5,73.2,29.95,SW,219,3.0,3.0,57,0.00,,FEW043,0.01,683.00,VWS V14.00,2013-06-11 20:50:00,
2013-06-11 16:55:00,91.0,73.1,29.95,SSW,212,0.0,7.0,56,0.00,,FEW043,0.01,648.00,VWS V14.00,2013-06-11 20:55:00,
2013-06-11 17:00:00,91.2,73.3,29.95,SSW,200,0.0,7.0,56,0.00,,FEW043,0.01,621.00,VWS V14.00,2013-06-11 21:00:00,
2013-06-11 17:05:00,91.4,73.0,29.95,SW,236,6.0,8.0,55,0.00,,BKN060,0.01,619.00,VWS V14.00,2013-06-11 21:05:00,
2013-06-11 17:10:00,91.2,72.2,29.95,WSW,256,0.0,8.0,54,0.00,,BKN060,0.01,651.00,VWS V14.00,2013-06-11 21:10:00,
2013-06-11 17:15:00,91.4,73.5,29.95,WSW,240,0.0,2.0,56,0.00,,BKN060,0.01,611.00,VWS V14.00,2013-06-11 21:15:00,
2013-06-11 17:20:00,91.6,73.2,29.95,SW,226,0.0,8.0,55,0.00,,BKN060,0.01,607.00,VWS V14.00,2013-06-11 21:20:00,
2013-06-11 17:25:00,91.4,71.3,29.95,WSW,243,5.0,7.0,52,0.00,,BKN060,0.01,612.00,VWS V14.00,2013-06-11 21:25:00,
2013-06-11 17:30:00,91.0,72.6,29.95,WSW,239,0.0,7.0,55,0.00,,BKN060,0.01,621.00,VWS V14.00,2013-06-11 21:30:00,
2013-06-11 17:35:00,91.0,72.1,29.95,SW,223,1.0,7.0,54,0.00,,BKN060,0.01,528.00,VWS V14.00,2013-06-11 21:35:00,
2013-06-11 17:40:00,91.0,72.6,29.95,SSW,198,0.0,7.0,55,0.00,,BKN060,0.01,442.00,VWS V14.00,2013-06-11 21:40:00,
2013-06-11 17:45:00,91.0,73.1,29.95,SSW,205,0.0,3.0,56,0.00,,BKN060,0.01,216.00,VWS V14.00,2013-06-11 21:45:00,
2013-06-11 17:50:00,90.7,72.3,29.95,NW,313,0.0,4.0,55,0.00,,BKN060,0.01,143.00,VWS V14.00,2013-06-11 21:50:00,
2013-06-11 17:55:00,90.5,74.2,29.95,SW,215,0.0,3.0,59,0.00,,BKN060,0.01,144.00,VWS V14.00,2013-06-11 21:55:00,
2013-06-11 18:00:00,90.3,74.0,29.95,SSW,212,0.0,3.0,59,0.00,,BKN060,0.01,165.00,VWS V14.00,2013-06-11 22:00:00,
2013-06-11 18:05:00,89.9,73.7,29.95,SSW,205,0.0,0.0,59,0.00,,BKN060,0.01,208.00,VWS V14.00,2013-06-11 22:05:00,
2013-06-11 18:10:00,89.5,72.8,29.95,West,271,2.0,6.0,58,0.00,,BKN060,0.01,267.00,VWS V14.00,2013-06-11 22:10:00,
2013-06-11 18:15:00,89.3,73.1,29.94,ESE,119,0.0,1.0,59,0.00,,BKN060,0.01,102.00,VWS V14.00,2013-06-11 22:15:00,
2013-06-11 18:20:00,89.0,72.3,29.94,SSW,205,0.0,1.0,58,0.00,,BKN060,0.01,74.00,VWS V14.00,2013-06-11 22:20:00,
2013-06-11 18:25:00,88.6,72.4,29.94,NW,318,0.0,3.0,59,0.00,,BKN060,0.01,104.00,VWS V14.00,2013-06-11 22:25:00,
2013-06-11 18:30:00,88.2,72.1,29.94,NNW,346,0.0,3.0,59,0.00,,BKN060,0.01,132.00,VWS V14.00,2013-06-11 22:30:00,
2013-06-11 18:35:00,88.2,73.1,29.94,South,176,0.0,2.0,61,0.00,,BKN060,0.01,72.00,VWS V14.00,2013-06-11 22:35:00,
2013-06-11 18:40:00,87.8,71.2,29.94,East,95,0.0,2.0,58,0.00,,BKN060,0.01,62.00,VWS V14.00,2013-06-11 22:40:00,
2013-06-11 18:45:00,87.6,72.0,29.94,South,184,0.0,7.0,60,0.00,,BKN060,0.01,58.00,VWS V14.00,2013-06-11 22:45:00,
2013-06-11 18:50:00,87.4,71.8,29.94,SW,236,0.0,7.0,60,0.00,,BKN060,0.01,63.00,VWS V14.00,2013-06-11 22:50:00,
2013-06-11 18:55:00,87.0,70.4,29.94,WSW,243,0.0,6.0,58,0.00,,BKN060,0.01,58.00,VWS V14.00,2013-06-11 22:55:00,
2013-06-11 19:00:00,86.7,70.2,29.95,SW,215,4.0,6.0,58,0.00,,BKN060,0.01,49.00,VWS V14.00,2013-06-11 23:00:00,
2013-06-11 19:05:00,86.7,70.7,29.95,SSW,200,0.0,7.0,59,0.00,,CLR,0.01,48.00,VWS V14.00,2013-06-11 23:05:00,
2013-06-11 19:10:00,86.5,71.0,29.95,SSW,200,0.0,7.0,60,0.00,,CLR,0.01,46.00,VWS V14.00,2013-06-11 23:10:00,
2013-06-11 19:15:00,86.5,71.5,29.95,SW,215,0.0,2.0,61,0.00,,CLR,0.01,44.00,VWS V14.00,2013-06-11 23:15:00,
2013-06-11 19:20:00,86.3,70.8,29.95,SSW,196,0.0,2.0,60,0.00,,CLR,0.01,42.00,VWS V14.00,2013-06-11 23:20:00,
2013-06-11 19:25:00,86.3,71.8,29.95,SSW,209,0.0,5.0,62,0.00,,CLR,0.01,40.00,VWS V14.00,2013-06-11 23:25:00,
2013-06-11 19:30:00,86.1,71.6,29.95,SSW,209,0.0,5.0,62,0.00,,CLR,0.01,37.00,VWS V14.00,2013-06-11 23:30:00,
2013-06-11 19:35:00,85.9,72.3,29.95,SSW,209,0.0,0.0,64,0.00,,CLR,0.01,35.00,VWS V14.00,2013-06-11 23:35:00,
2013-06-11 19:40:00,85.7,72.1,29.95,SSW,209,0.0,0.0,64,0.00,,CLR,0.01,33.00,VWS V14.00,2013-06-11 23:40:00,
2013-06-11 19:45:00,85.5,71.5,29.95,SSW,209,0.0,0.0,63,0.00,,CLR,0.01,32.00,VWS V14.00,2013-06-11 23:45:00,
2013-06-11 19:50:00,85.3,71.3,29.95,SSW,209,0.0,0.0,63,0.00,,CLR,0.01,28.00,VWS V14.00,2013-06-11 23:50:00,
2013-06-11 19:55:00,85.1,72.0,29.95,SSW,209,0.0,0.0,65,0.00,,CLR,0.01,26.00,VWS V14.00,2013-06-11 23:55:00,
2013-06-11 20:00:00,85.1,72.0,29.95,SSW,209,0.0,0.0,65,0.00,,CLR,0.01,25.00,VWS V14.00,2013-06-12 00:00:00,
2013-06-11 20:05:00,84.9,72.3,29.95,SSW,209,0.0,0.0,66,0.00,,FEW050,0.01,21.00,VWS V14.00,2013-06-12 00:05:00,
2013-06-11 20:10:00,84.7,73.0,29.95,SSW,209,0.0,0.0,68,0.00,,FEW050,0.01,18.00,VWS V14.00,2013-06-12 00:10:00,
2013-06-11 20:15:00,84.5,73.2,29.96,SSW,209,0.0,0.0,69,0.00,,FEW050,0.01,16.00,VWS V14.00,2013-06-12 00:15:00,
2013-06-11 20:20:00,84.3,73.0,29.96,SSW,209,0.0,0.0,69,0.00,,FEW050,0.01,14.00,VWS V14.00,2013-06-12 00:20:00,
2013-06-11 20:25:00,84.0,73.2,29.96,SSW,209,0.0,0.0,70,0.00,,FEW050,0.01,11.00,VWS V14.00,2013-06-12 00:25:00,
2013-06-11 20:30:00,83.8,73.4,29.96,SSW,209,0.0,0.0,71,0.00,,FEW050,0.01,7.00,VWS V14.00,2013-06-12 00:30:00,
2013-06-11 20:35:00,83.4,73.4,29.96,SSW,209,0.0,0.0,72,0.00,,FEW050,0.01,5.00,VWS V14.00,2013-06-12 00:35:00,
2013-06-11 20:40:00,83.0,73.1,29.96,SSW,209,0.0,0.0,72,0.00,,FEW050,0.01,0.00,VWS V14.00,2013-06-12 00:40:00,
2013-06-11 20:45:00,82.6,73.5,29.97,SSW,209,0.0,0.0,74,0.00,,FEW050,0.01,0.00,VWS V14.00,2013-06-12 00:45:00,
2013-06-11 20:50:00,82.4,73.3,29.97,SSW,209,0.0,0.0,74,0.00,,FEW050,0.01,0.00,VWS V14.00,2013-06-12 00:50:00,
2013-06-11 20:55:00,82.2,73.5,29.97,SSW,209,0.0,0.0,75,0.00,,FEW050,0.01,0.00,VWS V14.00,2013-06-12 00:55:00,
2013-06-11 21:00:00,81.8,73.1,29.97,SSW,209,0.0,0.0,75,0.00,,FEW050,0.01,0.00,VWS V14.00,2013-06-12 01:00:00,
2013-06-11 21:05:00,81.6,73.3,29.97,SSW,209,0.0,0.0,76,0.00,,CLR,0.01,0.00,VWS V14.00,2013-06-12 01:05:00,
2013-06-11 21:10:00,81.4,73.1,29.97,SSW,209,0.0,0.0,76,0.00,,CLR,0.01,0.00,VWS V14.00,2013-06-12 01:10:00,
2013-06-11 21:15:00,81.2,73.3,29.97,SSW,209,0.0,0.0,77,0.00,,CLR,0.01,0.00,VWS V14.00,2013-06-12 01:15:00,
2013-06-11 21:20:00,80.9,73.0,29.97,SSW,209,0.0,0.0,77,0.00,,CLR,0.01,0.00,VWS V14.00,2013-06-12 01:20:00,
2013-06-11 21:25:00,80.7,72.0,29.97,SSW,209,0.0,0.0,75,0.00,,CLR,0.01,0.00,VWS V14.00,2013-06-12 01:25:00,
2013-06-11 21:30:00,80.5,72.2,29.97,SSW,209,0.0,0.0,76,0.00,,CLR,0.01,0.00,VWS V14.00,2013-06-12 01:30:00,
2013-06-11 21:35:00,80.3,72.1,29.97,SSW,209,0.0,0.0,76,0.00,,CLR,0.01,0.00,VWS V14.00,2013-06-12 01:35:00,
2013-06-11 21:40:00,80.1,71.9,29.97,SSW,209,0.0,0.0,76,0.00,,CLR,0.01,0.00,VWS V14.00,2013-06-12 01:40:00,
2013-06-11 21:45:00,79.9,72.1,29.97,SSW,209,0.0,0.0,77,0.00,,CLR,0.01,0.00,VWS V14.00,2013-06-12 01:45:00,
2013-06-11 21:50:00,79.8,72.3,29.97,SSW,209,0.0,0.0,78,0.00,,CLR,0.01,0.00,VWS V14.00,2013-06-12 01:50:00,
2013-06-11 21:55:00,79.6,72.1,29.97,SSW,209,0.0,0.0,78,0.00,,CLR,0.01,0.00,VWS V14.00,2013-06-12 01:55:00,
2013-06-11 22:00:00,79.4,71.9,29.98,SSW,209,0.0,0.0,78,0.00,,CLR,0.01,0.00,VWS V14.00,2013-06-12 02:00:00,
2013-06-11 22:05:00,79.2,71.8,29.98,SSW,209,0.0,0.0,78,0.00,,CLR,0.01,0.00,VWS V14.00,2013-06-12 02:05:00,
2013-06-11 22:10:00,79.0,71.9,29.98,SSW,209,0.0,0.0,79,0.00,,CLR,0.01,0.00,VWS V14.00,2013-06-12 02:10:00,
2013-06-11 22:15:00,79.0,72.3,29.99,SSW,209,0.0,0.0,80,0.00,,CLR,0.01,0.00,VWS V14.00,2013-06-12 02:15:00,
2013-06-11 22:20:00,78.8,71.7,29.99,SSW,209,0.0,0.0,79,0.00,,CLR,0.01,0.00,VWS V14.00,2013-06-12 02:20:00,
2013-06-11 22:25:00,78.8,72.1,29.99,SSW,209,0.0,0.0,80,0.00,,CLR,0.01,0.00,VWS V14.00,2013-06-12 02:25:00,
2013-06-11 22:30:00,78.6,72.3,29.99,SSW,209,0.0,0.0,81,0.00,,CLR,0.01,0.00,VWS V14.00,2013-06-12 02:30:00,
2013-06-11 22:35:00,78.5,72.2,29.99,SSW,209,0.0,0.0,81,0.00,,CLR,0.01,0.00,VWS V14.00,2013-06-12 02:35:00,
2013-06-11 22:40:00,78.5,72.6,29.99,SSW,209,0.0,0.0,82,0.00,,CLR,0.01,0.00,VWS V14.00,2013-06-12 02:40:00,
2013-06-11 22:45:00,78.3,72.4,30.00,SSW,209,0.0,0.0,82,0.00,,CLR,0.01,0.00,VWS V14.00,2013-06-12 02:45:00,
2013-06-11 22:50:00,78.3,72.4,30.00,SSW,209,0.0,0.0,82,0.00,,CLR,0.01,0.00,VWS V14.00,2013-06-12 02:50:00,
2013-06-11 22:55:00,78.1,72.5,30.00,SSW,209,0.0,0.0,83,0.00,,CLR,0.01,0.00,VWS V14.00,2013-06-12 02:55:00,
2013-06-11 23:00:00,78.1,72.5,30.00,SSW,209,0.0,0.0,83,0.00,,CLR,0.01,0.00,VWS V14.00,2013-06-12 03:00:00,
2013-06-11 23:05:00,77.9,72.3,30.00,SSW,209,0.0,0.0,83,0.00,,CLR,0.01,0.00,VWS V14.00,2013-06-12 03:05:00,
2013-06-11 23:10:00,77.9,72.7,30.00,SSW,209,0.0,0.0,84,0.00,,CLR,0.01,0.00,VWS V14.00,2013-06-12 03:10:00,
2013-06-11 23:15:00,77.7,72.5,30.00,SSW,209,0.0,0.0,84,0.00,,CLR,0.01,0.00,VWS V14.00,2013-06-12 03:15:00,
2013-06-11 23:20:00,77.6,72.4,30.00,SSW,209,0.0,0.0,84,0.00,,CLR,0.01,0.00,VWS V14.00,2013-06-12 03:20:00,
2013-06-11 23:25:00,77.6,72.4,30.00,SSW,209,0.0,0.0,84,0.00,,CLR,0.01,0.00,VWS V14.00,2013-06-12 03:25:00,
2013-06-11 23:30:00,77.4,72.2,30.01,SSW,209,0.0,0.0,84,0.00,,CLR,0.01,0.00,VWS V14.00,2013-06-12 03:30:00,
2013-06-11 23:35:00,77.4,72.2,30.01,SSW,209,0.0,0.0,84,0.00,,CLR,0.01,0.00,VWS V14.00,2013-06-12 03:35:00,
2013-06-11 23:40:00,77.4,72.5,30.01,SSW,209,0.0,0.0,85,0.00,,CLR,0.01,0.00,VWS V14.00,2013-06-12 03:40:00,
2013-06-11 23:45:00,77.4,72.5,30.01,SSW,209,0.0,0.0,85,0.00,,CLR,0.01,0.00,VWS V14.00,2013-06-12 03:45:00,
2013-06-11 23:50:00,77.2,72.3,30.01,SSW,209,0.0,0.0,85,0.00,,CLR,0.01,0.00,VWS V14.00,2013-06-12 03:50:00,
2013-06-11 23:55:00,77.2,72.3,30.01,SSW,209,0.0,0.0,85,0.00,,CLR,0.01,0.00,VWS V14.00,2013-06-12 03:55:00,